KCDN

Woodward Field Airport

Camden, South Carolina, USA
METAR KCDN 231415Z AUTO 00000KT 9SM CLR 18/16 A3047 RMK AO2
Observed Flight Rules
Feb-23 @ 14:15 UTC (21 minutes ago) Visual Flight Rules
Wind Visibility Clouds
Calm 9 miles
  • Clear skies
Temperatures Readings
Current 18°C / 64°F
Dewpoint 16°C / 61°F
Humidity 88%
Altimeter 30.47" Hg
Pressure 1032 hPa
Elevation 92
METAR KCDN 231415Z AUTO 00000KT 9SM CLR 18/16 A3047 RMK AO2
Observed Flight Rules
Feb-23 @ 14:15 UTC
(21 minutes ago)
VFR
Wind Visibility
Calm 9 miles
Clouds
  • Clear skies
Temperature Dewpoint
18°C / 64°F 16°C / 61°F
Humidity Altimeter Pressure
88% 30.47" Hg 1032 hPa